Delray Beach, FL

6:53 PM EDT on August 21, 2014 (GMT -0400)
Palm Beach International | Change Station
CLOSE
Current Station
Airport
Location: West Palm Beach,
Elevation: 20 ft
Nearby Weather Stations

Elev 20 ft 26.68 °N, 80.10 °W | Updated 1 hour ago

Mostly Cloudy
Mostly Cloudy
89 °F
Feels Like 99 °F
N
12
Wind Variable Wind from ESE

Today
High -- | Low -- °F
--% Chance of Precip.
Yesterday
High -- | Low -- °F
Precip. -- in
6:55 AM 7:51 PM
Waning Crescent, 12% visible
Pressure 30.06 in
Visibility 10.0 miles
Clouds Scattered Clouds 2900 ft
Scattered Clouds 8000 ft
Mostly Cloudy 25000 ft
Heat Index 99 °F
Dew Point 75 °F
Humidity 63%
Rainfall 0.00 in
Snow Depth Not available.
UV 2 out of 12
Pollen 4.80 out of 12
Air Quality Not available.
Flu Activity Not available.
METAR KPBI 212153Z 12010KT 10SM SCT029 SCT080 BKN250 32/24 A3006 RMK AO2 SLP178 CB DSNT SW T03170239

More Conditions Fewer Conditions

Pressure 30.06 in
Visibility 10.0 miles
Clouds Scattered Clouds 2900 ft
Scattered Clouds 8000 ft
Mostly Cloudy 25000 ft
Heat Index 99 °F
Dew Point 75 °F
Humidity 63%
Rainfall 0.00 in
Snow Depth Not available.
UV 2 out of 12
Pollen 4.80 out of 12
Air Quality Not available.
Flu Activity Not available.
METAR KPBI 212153Z 12010KT 10SM SCT029 SCT080 BKN250 32/24 A3006 RMK AO2 SLP178 CB DSNT SW T03170239

More Conditions Fewer Conditions

Nowcast | as of 5:36 PM EDT on August 21, 2014

Showers and thunderstorms will remain mostly over The Everglades and communities around Lake Okeechobee into early evening. Dry conditions are expected over the Metro areas of Southeast Florida.

×

10-Day Weather Forecast

Almanac

Astronomy

Aug. 21, 2014 Rise Set
Actual Time 6:55 AM EDT 7:51 PM EDT
Civil Twilight 6:31 AM EDT 8:15 PM EDT
Nautical Twilight 6:03 AM EDT 8:43 PM EDT
Astronomical Twilight 5:34 AM EDT 9:12 PM EDT
Moon 3:33 AM EDT 5:10 PM EDT
Length of Visible Light 13h 43m
Length of Day
12h 55m
Tomorrow will be 1m 25s shorter.
Waning Crescent, 12% of the Moon is Illuminated
Today
Waning Crescent
Aug 25
New
Sep 2
First Quarter
Sep 8
Full
Sep 15
Last Quarter

Today's Extremes

State Highs State Lows

Community

WunderPhotos

Upload Photos

1,746,044 photos uploaded!

WunderBlogs® & News

Nearby

Air Quality

  Air Quality AQ Index Pollutant
Yesterday Good
OZONE
Thursday Good
OZONE
Thursday Good
PM2.5
Friday Good
OZONE
Friday Good
PM2.5

Snow Depth

Station Depth Elevation
No new snow has been reported.

Earthquake Activity

City Distance Mag. Time & Date
No recent earthquake activity has been reported nearby.
Minimum magnitude displayed is 2.5.

Coastal Water Temperatures

Place Temperature
Lake Worth, FL 88.0 °F
Virginia Key, FL 90.0 °F

Nearby Weather Stations